createdAt,value
2023-02-01T00:01:19.831Z,99975.00
2023-02-01T00:03:47.596Z,99985.00
2023-02-01T00:06:15.604Z,99994.00
2023-02-01T00:08:43.330Z,99988.00
2023-02-01T00:11:12.611Z,99976.00
2023-02-01T00:13:42.233Z,99979.00
2023-02-01T00:16:21.793Z,99989.00
2023-02-01T00:18:51.560Z,99985.00
2023-02-01T00:21:21.015Z,99982.00
2023-02-01T00:23:49.127Z,99988.00
2023-02-01T00:26:19.674Z,99985.00
2023-02-01T00:28:47.663Z,99994.00
2023-02-01T00:31:16.129Z,99986.00
2023-02-01T00:33:44.234Z,99995.00
2023-02-01T00:36:12.300Z,99988.00
2023-02-01T00:38:40.623Z,99982.00
2023-02-01T00:41:19.742Z,99978.00
2023-02-01T00:43:48.455Z,99968.00
2023-02-01T00:46:20.492Z,99969.00
2023-02-01T00:48:48.431Z,99970.00
2023-02-01T00:51:27.872Z,99975.00
2023-02-01T00:53:57.210Z,99977.00
2023-02-01T00:56:25.133Z,99975.00
2023-02-01T00:58:52.758Z,99971.00
2023-02-01T01:01:25.832Z,99968.00
2023-02-01T01:03:56.429Z,99968.00
2023-02-01T01:06:32.552Z,99974.00
2023-02-01T01:09:03.694Z,99970.00
2023-02-01T01:11:37.643Z,99963.00
2023-02-01T01:14:08.559Z,99970.00
2023-02-01T01:16:37.390Z,99960.00
2023-02-01T01:19:06.174Z,99963.00
2023-02-01T01:21:34.145Z,99965.00
2023-02-01T01:24:02.119Z,99962.00
2023-02-01T01:26:31.135Z,99961.00
2023-02-01T01:29:00.516Z,99944.00
2023-02-01T01:31:32.186Z,99956.00
2023-02-01T01:34:01.300Z,99947.00
2023-02-01T01:36:30.892Z,99945.00
2023-02-01T01:38:58.918Z,99946.00
2023-02-01T01:41:33.070Z,99943.00
2023-02-01T01:44:28.909Z,99955.00
2023-02-01T01:46:56.933Z,99960.00
2023-02-01T01:49:27.710Z,99949.00
2023-02-01T01:51:59.220Z,99947.00
2023-02-01T01:54:30.783Z,99938.00
2023-02-01T01:57:08.274Z,99940.00
2023-02-01T01:59:38.013Z,99937.00
2023-02-01T02:02:05.785Z,99938.00
2023-02-01T02:04:34.695Z,99936.00
2023-02-01T02:07:25.004Z,99936.00
2023-02-01T02:10:00.517Z,99938.00
2023-02-01T02:12:30.055Z,99948.00
2023-02-01T02:14:58.036Z,99939.00
2023-02-01T02:17:57.201Z,99934.00
2023-02-01T02:20:41.704Z,99934.00
2023-02-01T02:23:35.559Z,99934.00
2023-02-01T02:26:25.685Z,99935.00
2023-02-01T02:29:47.798Z,99933.00
2023-02-01T02:32:49.907Z,99920.00
2023-02-01T02:35:48.430Z,99917.00
2023-02-01T02:38:32.861Z,99920.00
2023-02-01T02:41:03.414Z,99907.00
2023-02-01T02:43:56.832Z,99913.00
2023-02-01T02:47:01.149Z,99916.00
2023-02-01T02:49:30.592Z,99906.00
2023-02-01T02:52:37.971Z,99906.00
2023-02-01T02:55:07.512Z,99898.00
2023-02-01T02:58:01.676Z,99890.00
2023-02-01T03:00:51.757Z,99888.00
2023-02-01T03:03:38.350Z,99876.00
2023-02-01T03:06:06.996Z,99875.00
2023-02-01T03:08:35.106Z,99869.00
2023-02-01T03:11:11.070Z,99866.00
2023-02-01T03:13:52.733Z,99865.00
2023-02-01T03:16:33.739Z,99858.00
2023-02-01T03:19:11.180Z,99859.00
2023-02-01T03:21:52.138Z,99869.00
2023-02-01T03:24:21.856Z,99867.00
2023-02-01T03:27:05.420Z,99856.00
2023-02-01T03:29:39.808Z,99850.00
2023-02-01T03:32:08.100Z,99841.00
2023-02-01T03:34:36.323Z,99834.00
2023-02-01T03:37:08.338Z,99840.00
2023-02-01T03:39:50.332Z,99838.00
2023-02-01T03:42:36.590Z,99840.00
2023-02-01T03:45:21.975Z,99829.00
2023-02-01T03:47:54.667Z,99826.00
2023-02-01T03:50:25.131Z,99826.00
2023-02-01T03:53:03.667Z,99823.00
2023-02-01T03:55:32.376Z,99818.00
2023-02-01T03:58:14.110Z,99817.00
2023-02-01T04:00:45.171Z,99825.00
2023-02-01T04:03:13.143Z,99817.00
2023-02-01T04:05:41.070Z,99811.00
2023-02-01T04:08:10.451Z,99807.00
2023-02-01T04:10:38.544Z,99796.00
2023-02-01T04:13:06.355Z,99799.00
2023-02-01T04:15:35.808Z,99795.00
2023-02-01T04:18:03.544Z,99785.00
2023-02-01T04:20:31.512Z,99789.00
2023-02-01T04:22:59.688Z,99788.00
2023-02-01T04:25:27.702Z,99786.00
2023-02-01T04:27:55.420Z,99783.00
2023-02-01T04:30:25.270Z,99781.00
2023-02-01T04:32:53.246Z,99787.00
2023-02-01T04:35:21.052Z,99782.00
2023-02-01T04:37:48.917Z,99786.00
2023-02-01T04:40:16.839Z,99779.00
2023-02-01T04:42:48.004Z,99779.00
2023-02-01T04:45:15.997Z,99772.00
2023-02-01T04:47:43.964Z,99769.00
2023-02-01T04:50:12.216Z,99763.00
2023-02-01T04:52:40.053Z,99763.00
2023-02-01T04:55:08.482Z,99763.00
2023-02-01T04:57:36.528Z,99753.00
2023-02-01T05:00:04.997Z,99752.00
2023-02-01T05:02:33.568Z,99747.00
2023-02-01T05:05:02.117Z,99744.00
2023-02-01T05:07:30.039Z,99741.00
2023-02-01T05:10:01.354Z,99740.00
2023-02-01T05:12:47.503Z,99735.00
2023-02-01T05:15:15.529Z,99734.00
2023-02-01T05:17:43.723Z,99731.00
2023-02-01T05:20:12.416Z,99731.00
2023-02-01T05:22:40.324Z,99725.00
2023-02-01T05:25:08.599Z,99711.00
2023-02-01T05:27:36.635Z,99721.00
2023-02-01T05:30:09.427Z,99714.00
2023-02-01T05:32:37.319Z,99715.00
2023-02-01T05:35:05.575Z,99717.00
2023-02-01T05:37:33.656Z,99707.00
2023-02-01T05:40:01.555Z,99716.00
2023-02-01T05:42:30.233Z,99728.00
2023-02-01T05:44:58.118Z,99714.00
2023-02-01T05:47:26.119Z,99709.00
2023-02-01T05:49:53.937Z,99705.00
2023-02-01T05:52:21.817Z,99701.00
2023-02-01T05:54:49.730Z,99696.00
2023-02-01T05:57:17.644Z,99694.00
2023-02-01T05:59:46.812Z,99696.00
2023-02-01T06:02:14.721Z,99696.00
2023-02-01T06:04:42.717Z,99690.00
2023-02-01T06:07:11.709Z,99693.00
2023-02-01T06:09:39.752Z,99679.00
2023-02-01T06:12:07.968Z,99687.00
2023-02-01T06:14:35.989Z,99686.00
2023-02-01T06:17:04.310Z,99692.00
2023-02-01T06:19:34.555Z,99679.00
2023-02-01T06:22:02.665Z,99683.00
2023-02-01T06:24:30.581Z,99686.00
2023-02-01T06:26:58.576Z,99671.00
2023-02-01T06:29:27.923Z,99678.00
2023-02-01T06:31:55.930Z,99671.00
2023-02-01T06:34:24.222Z,99685.00
2023-02-01T06:36:52.235Z,99687.00
2023-02-01T06:39:20.300Z,99678.00
2023-02-01T06:41:49.491Z,99681.00
2023-02-01T06:44:18.111Z,99681.00
2023-02-01T06:46:46.123Z,99671.00
2023-02-01T06:49:13.980Z,99675.00
2023-02-01T06:51:42.164Z,99679.00
2023-02-01T06:54:09.955Z,99670.00
2023-02-01T06:56:37.643Z,99679.00
2023-02-01T06:59:06.734Z,99676.00
2023-02-01T07:01:34.960Z,99681.00
2023-02-01T07:04:02.918Z,99674.00
2023-02-01T07:06:30.827Z,99683.00
2023-02-01T07:08:59.464Z,99683.00
2023-02-01T07:11:29.272Z,99679.00
2023-02-01T07:13:57.411Z,99681.00
2023-02-01T07:16:25.462Z,99689.00
2023-02-01T07:18:54.035Z,99696.00
2023-02-01T07:21:22.407Z,99696.00
2023-02-01T07:23:50.264Z,99690.00
2023-02-01T07:26:20.177Z,99704.00
2023-02-01T07:28:48.477Z,99700.00
2023-02-01T07:31:20.021Z,99698.00
2023-02-01T07:33:48.258Z,99703.00
2023-02-01T07:36:18.389Z,99708.00
2023-02-01T07:38:48.322Z,99712.00
2023-02-01T07:41:16.672Z,99700.00
2023-02-01T07:43:44.994Z,99708.00
2023-02-01T07:46:13.433Z,99702.00
2023-02-01T07:48:41.290Z,99706.00
2023-02-01T07:51:14.761Z,99718.00
2023-02-01T07:53:43.431Z,99712.00
2023-02-01T07:56:19.827Z,99715.00
2023-02-01T07:58:52.698Z,99704.00
2023-02-01T08:01:25.849Z,99708.00
2023-02-01T08:04:00.801Z,99711.00
2023-02-01T08:06:32.359Z,99713.00
2023-02-01T08:09:00.783Z,99714.00
2023-02-01T08:11:29.072Z,99703.00
2023-02-01T08:13:57.662Z,99716.00
2023-02-01T08:16:26.076Z,99725.00
2023-02-01T08:18:55.262Z,99720.00
2023-02-01T08:21:25.826Z,99730.00
2023-02-01T08:23:54.327Z,99728.00
2023-02-01T08:26:25.132Z,99734.00
2023-02-01T08:28:55.936Z,99738.00
2023-02-01T08:31:25.674Z,99734.00
2023-02-01T08:33:56.144Z,99732.00
2023-02-01T08:36:25.187Z,99725.00
2023-02-01T08:38:53.341Z,99736.00
2023-02-01T08:41:24.700Z,99725.00
2023-02-01T08:43:53.035Z,99737.00
2023-02-01T08:46:21.093Z,99732.00
2023-02-01T08:48:50.582Z,99740.00
2023-02-01T08:51:20.367Z,99740.00
2023-02-01T08:53:48.362Z,99739.00
2023-02-01T08:56:18.055Z,99724.00
2023-02-01T08:58:46.462Z,99722.00
2023-02-01T09:01:18.288Z,99719.00
2023-02-01T09:03:47.346Z,99708.00
2023-02-01T09:06:16.512Z,99716.00
2023-02-01T09:08:44.546Z,99736.00
2023-02-01T09:11:20.559Z,99738.00
2023-02-01T09:13:49.719Z,99733.00
2023-02-01T09:16:18.059Z,99736.00
2023-02-01T09:18:55.751Z,99746.00
2023-02-01T09:21:30.493Z,99740.00
2023-02-01T09:23:58.447Z,99728.00
2023-02-01T09:26:32.182Z,99734.00
2023-02-01T09:29:01.490Z,99736.00
2023-02-01T09:31:29.677Z,99727.00
2023-02-01T09:33:57.893Z,99741.00
2023-02-01T09:36:26.014Z,99731.00
2023-02-01T09:38:54.663Z,99725.00
2023-02-01T09:41:55.450Z,99728.00
2023-02-01T09:44:58.242Z,99740.00
2023-02-01T09:47:27.435Z,99733.00
2023-02-01T09:50:11.704Z,99738.00
2023-02-01T09:53:06.616Z,99733.00
2023-02-01T09:55:44.445Z,99743.00
2023-02-01T09:58:21.791Z,99734.00
2023-02-01T10:01:02.508Z,99742.00
2023-02-01T10:03:33.536Z,99733.00
2023-02-01T10:06:07.191Z,99755.00
2023-02-01T10:08:43.738Z,99753.00
2023-02-01T10:11:49.535Z,99743.00
2023-02-01T10:14:28.789Z,99741.00
2023-02-01T10:17:15.319Z,99747.00
2023-02-01T10:19:43.139Z,99753.00
2023-02-01T10:22:12.845Z,99750.00
2023-02-01T10:24:58.483Z,99755.00
2023-02-01T10:27:36.737Z,99748.00
2023-02-01T10:30:25.982Z,99745.00
2023-02-01T10:33:17.587Z,99755.00
2023-02-01T10:35:47.588Z,99753.00
2023-02-01T10:38:31.663Z,99753.00
2023-02-01T10:41:14.371Z,99747.00
2023-02-01T10:43:42.638Z,99755.00
2023-02-01T10:46:11.030Z,99743.00
2023-02-01T10:48:39.423Z,99757.00
2023-02-01T10:51:29.508Z,99768.00
2023-02-01T10:54:11.025Z,99769.00
2023-02-01T10:56:40.203Z,99766.00
2023-02-01T10:59:18.072Z,99768.00
2023-02-01T11:01:48.778Z,99755.00
2023-02-01T11:04:21.494Z,99750.00
2023-02-01T11:06:54.633Z,99755.00
2023-02-01T11:09:26.853Z,99764.00
2023-02-01T11:12:01.630Z,99763.00
2023-02-01T11:14:41.082Z,99762.00
2023-02-01T11:17:20.927Z,99760.00
2023-02-01T11:19:57.584Z,99759.00
2023-02-01T11:22:28.333Z,99754.00
2023-02-01T11:24:56.686Z,99749.00
2023-02-01T11:27:27.889Z,99749.00
2023-02-01T11:30:05.226Z,99753.00
2023-02-01T11:32:33.371Z,99744.00
2023-02-01T11:35:06.979Z,99745.00
2023-02-01T11:37:39.875Z,99738.00
2023-02-01T11:40:22.954Z,99738.00
2023-02-01T11:43:02.695Z,99728.00
2023-02-01T11:45:32.803Z,99731.00
2023-02-01T11:48:01.819Z,99726.00
2023-02-01T11:50:45.607Z,99715.00
2023-02-01T11:53:39.413Z,99714.00
2023-02-01T11:56:39.228Z,99714.00
2023-02-01T11:59:16.667Z,99704.00
2023-02-01T12:02:16.103Z,99702.00
2023-02-01T12:04:46.767Z,99698.00
2023-02-01T12:08:03.827Z,99691.00
2023-02-01T12:10:37.623Z,99683.00
2023-02-01T12:13:26.362Z,99680.00
2023-02-01T12:16:08.173Z,99668.00
2023-02-01T12:18:54.927Z,99674.00
2023-02-01T12:21:48.330Z,99656.00
2023-02-01T12:24:35.266Z,99648.00
2023-02-01T12:27:18.273Z,99642.00
2023-02-01T12:30:17.176Z,99627.00
2023-02-01T12:32:54.386Z,99625.00
2023-02-01T12:35:51.041Z,99619.00
2023-02-01T12:38:24.940Z,99621.00
2023-02-01T12:41:09.163Z,99608.00
2023-02-01T12:43:49.349Z,99601.00
2023-02-01T12:46:22.236Z,99599.00
2023-02-01T12:49:26.943Z,99593.00
2023-02-01T12:52:15.119Z,99595.00
2023-02-01T12:54:57.328Z,99593.00
2023-02-01T12:57:35.380Z,99582.00
2023-02-01T13:00:13.332Z,99583.00
2023-02-01T13:02:56.647Z,99554.00
2023-02-01T13:05:31.257Z,99542.00
2023-02-01T13:08:09.883Z,99553.00
2023-02-01T13:10:43.386Z,99545.00
2023-02-01T13:13:46.136Z,99534.00
2023-02-01T13:16:30.074Z,99549.00
2023-02-01T13:19:30.434Z,99516.00
2023-02-01T13:22:14.149Z,99525.00
2023-02-01T13:24:47.189Z,99516.00
2023-02-01T13:27:16.110Z,99506.00
2023-02-01T13:29:59.495Z,99511.00
2023-02-01T13:32:53.064Z,99491.00
2023-02-01T13:36:07.176Z,99495.00
2023-02-01T13:39:04.398Z,99490.00
2023-02-01T13:41:37.489Z,99488.00
2023-02-01T13:44:17.039Z,99504.00
2023-02-01T13:46:46.935Z,99496.00
2023-02-01T13:49:33.359Z,99500.00
2023-02-01T13:52:01.467Z,99501.00
2023-02-01T13:54:33.356Z,99497.00
2023-02-01T13:57:04.960Z,99490.00
2023-02-01T13:59:39.052Z,99505.00
2023-02-01T14:02:44.175Z,99499.00
2023-02-01T14:05:35.665Z,99502.00
2023-02-01T14:08:06.778Z,99514.00
2023-02-01T14:10:48.719Z,99515.00
2023-02-01T14:13:30.321Z,99515.00
2023-02-01T14:16:04.564Z,99525.00
2023-02-01T14:18:38.684Z,99560.00
2023-02-01T14:21:24.204Z,99593.00
2023-02-01T14:23:54.949Z,99642.00
2023-02-01T14:26:42.240Z,99654.00
2023-02-01T14:29:37.754Z,99656.00
2023-02-01T14:32:31.446Z,99642.00
2023-02-01T14:35:02.444Z,99617.00
2023-02-01T14:37:33.438Z,99621.00
2023-02-01T14:40:14.729Z,99631.00
2023-02-01T14:42:48.111Z,99609.00
2023-02-01T14:45:25.286Z,99614.00
2023-02-01T14:48:07.066Z,99604.00
2023-02-01T14:50:37.961Z,99623.00
2023-02-01T14:53:14.478Z,99642.00
2023-02-01T14:56:04.359Z,99665.00
2023-02-01T14:58:51.559Z,99647.00
2023-02-01T15:01:34.636Z,99652.00
2023-02-01T15:04:12.933Z,99667.00
2023-02-01T15:06:46.192Z,99656.00
2023-02-01T15:09:35.083Z,99670.00
2023-02-01T15:12:13.676Z,99672.00
2023-02-01T15:14:50.245Z,99671.00
2023-02-01T15:17:23.941Z,99663.00
2023-02-01T15:19:59.853Z,99663.00
2023-02-01T15:22:29.203Z,99668.00
2023-02-01T15:25:02.005Z,99663.00
2023-02-01T15:27:31.339Z,99666.00
2023-02-01T15:30:36.926Z,99665.00
2023-02-01T15:33:20.463Z,99674.00
2023-02-01T15:35:53.830Z,99672.00
2023-02-01T15:38:33.182Z,99661.00
2023-02-01T15:41:08.857Z,99661.00
2023-02-01T15:43:42.914Z,99671.00
2023-02-01T15:46:16.829Z,99675.00
2023-02-01T15:48:55.433Z,99675.00
2023-02-01T15:51:25.097Z,99674.00
2023-02-01T15:54:07.666Z,99676.00
2023-02-01T15:56:38.215Z,99679.00
2023-02-01T15:59:14.717Z,99676.00
2023-02-01T16:01:43.381Z,99680.00
2023-02-01T16:04:22.384Z,99688.00
2023-02-01T16:06:57.797Z,99693.00
2023-02-01T16:09:36.795Z,99691.00
2023-02-01T16:12:18.971Z,99687.00
2023-02-01T16:14:46.985Z,99681.00
2023-02-01T16:17:14.781Z,99691.00
2023-02-01T16:19:42.672Z,99683.00
2023-02-01T16:22:10.607Z,99684.00
2023-02-01T16:24:38.924Z,99680.00
2023-02-01T16:27:08.262Z,99694.00
2023-02-01T16:29:36.005Z,99687.00
2023-02-01T16:32:04.636Z,99692.00
2023-02-01T16:34:32.888Z,99702.00
2023-02-01T16:37:01.611Z,99698.00
2023-02-01T16:39:29.876Z,99698.00
2023-02-01T16:42:00.655Z,99702.00
2023-02-01T16:44:29.077Z,99697.00
2023-02-01T16:46:56.944Z,99702.00
2023-02-01T16:49:26.300Z,99697.00
2023-02-01T16:51:58.549Z,99704.00
2023-02-01T16:54:27.905Z,99705.00
2023-02-01T16:56:55.847Z,99714.00
2023-02-01T16:59:23.955Z,99707.00
2023-02-01T17:01:51.878Z,99712.00
2023-02-01T17:04:21.990Z,99714.00
2023-02-01T17:06:50.492Z,99713.00
2023-02-01T17:09:18.502Z,99709.00
2023-02-01T17:11:48.639Z,99708.00
2023-02-01T17:14:19.343Z,99710.00
2023-02-01T17:16:49.259Z,99706.00
2023-02-01T17:19:19.453Z,99707.00
2023-02-01T17:21:53.508Z,99704.00
2023-02-01T17:24:25.882Z,99718.00
2023-02-01T17:26:55.211Z,99715.00
2023-02-01T17:29:23.527Z,99712.00
2023-02-01T17:32:06.485Z,99723.00
2023-02-01T17:34:34.886Z,99721.00
2023-02-01T17:37:02.790Z,99722.00
2023-02-01T17:39:49.348Z,99719.00
2023-02-01T17:42:17.395Z,99734.00
2023-02-01T17:44:45.477Z,99731.00
2023-02-01T17:47:13.482Z,99723.00
2023-02-01T17:49:41.313Z,99718.00
2023-02-01T17:52:16.627Z,99721.00
2023-02-01T17:54:45.194Z,99725.00
2023-02-01T17:57:15.953Z,99722.00
2023-02-01T17:59:44.240Z,99720.00
2023-02-01T18:02:23.524Z,99741.00
2023-02-01T18:04:52.212Z,99756.00
2023-02-01T18:07:20.227Z,99759.00
2023-02-01T18:09:48.057Z,99771.00
2023-02-01T18:12:28.706Z,99760.00
2023-02-01T18:14:57.555Z,99764.00
2023-02-01T18:17:25.534Z,99774.00
2023-02-01T18:19:54.717Z,99761.00
2023-02-01T18:22:24.427Z,99773.00
2023-02-01T18:24:52.365Z,99782.00
2023-02-01T18:27:38.612Z,99787.00
2023-02-01T18:30:10.504Z,99788.00
2023-02-01T18:32:38.425Z,99789.00
2023-02-01T18:35:16.450Z,99786.00
2023-02-01T18:37:44.860Z,99751.00
2023-02-01T18:40:18.512Z,99753.00
2023-02-01T18:42:46.378Z,99755.00
2023-02-01T18:45:23.387Z,99758.00
2023-02-01T18:47:53.451Z,99764.00
2023-02-01T18:50:21.975Z,99748.00
2023-02-01T18:52:53.300Z,99761.00
2023-02-01T18:55:21.806Z,99758.00
2023-02-01T18:57:50.246Z,99760.00
2023-02-01T19:00:19.693Z,99750.00
2023-02-01T19:02:48.793Z,99736.00
2023-02-01T19:05:17.736Z,99722.00
2023-02-01T19:07:46.570Z,99780.00
2023-02-01T19:10:17.459Z,99807.00
2023-02-01T19:12:45.404Z,99780.00
2023-02-01T19:15:15.939Z,99780.00
2023-02-01T19:17:46.124Z,99768.00
2023-02-01T19:20:19.882Z,99785.00
2023-02-01T19:22:51.433Z,99777.00
2023-02-01T19:25:25.097Z,99793.00
2023-02-01T19:27:56.912Z,99782.00
2023-02-01T19:30:26.294Z,99785.00
2023-02-01T19:32:54.042Z,99781.00
2023-02-01T19:35:22.716Z,99776.00
2023-02-01T19:37:50.950Z,99783.00
2023-02-01T19:40:20.387Z,99784.00
2023-02-01T19:42:48.961Z,99757.00
2023-02-01T19:45:17.228Z,99776.00
2023-02-01T19:47:45.191Z,99764.00
2023-02-01T19:50:19.785Z,99759.00
2023-02-01T19:52:47.960Z,99761.00
2023-02-01T19:55:16.060Z,99765.00
2023-02-01T19:57:46.956Z,99760.00
2023-02-01T20:00:16.998Z,99765.00
2023-02-01T20:02:44.944Z,99769.00
2023-02-01T20:05:12.824Z,99776.00
2023-02-01T20:07:40.977Z,99777.00
2023-02-01T20:10:09.766Z,99781.00
2023-02-01T20:12:37.585Z,99793.00
2023-02-01T20:15:06.214Z,99792.00
2023-02-01T20:17:35.467Z,99796.00
2023-02-01T20:20:04.943Z,99809.00
2023-02-01T20:22:32.891Z,99818.00
2023-02-01T20:25:02.756Z,99818.00
2023-02-01T20:27:31.702Z,99818.00
2023-02-01T20:29:59.967Z,99799.00
2023-02-01T20:32:28.102Z,99813.00
2023-02-01T20:34:56.049Z,99826.00
2023-02-01T20:37:23.971Z,99811.00
2023-02-01T20:39:51.766Z,99824.00
2023-02-01T20:42:19.568Z,99819.00
2023-02-01T20:44:47.624Z,99822.00
2023-02-01T20:47:15.395Z,99811.00
2023-02-01T20:49:43.610Z,99826.00
2023-02-01T20:52:15.104Z,99826.00
2023-02-01T20:54:43.179Z,99821.00
2023-02-01T20:57:12.192Z,99821.00
2023-02-01T20:59:40.005Z,99803.00
2023-02-01T21:02:09.038Z,99797.00
2023-02-01T21:04:37.576Z,99806.00
2023-02-01T21:07:08.509Z,99802.00
2023-02-01T21:09:41.718Z,99805.00
2023-02-01T21:12:09.929Z,99808.00
2023-02-01T21:14:38.493Z,99822.00
2023-02-01T21:17:06.523Z,99835.00
2023-02-01T21:19:43.437Z,99839.00
2023-02-01T21:22:15.459Z,99844.00
2023-02-01T21:24:43.974Z,99845.00
2023-02-01T21:27:15.172Z,99848.00
2023-02-01T21:29:42.914Z,99860.00
2023-02-01T21:32:11.371Z,99855.00
2023-02-01T21:34:39.167Z,99866.00
2023-02-01T21:37:07.024Z,99864.00
2023-02-01T21:39:34.973Z,99867.00
2023-02-01T21:42:15.173Z,99863.00
2023-02-01T21:44:46.376Z,99870.00
2023-02-01T21:47:16.873Z,99876.00
2023-02-01T21:49:45.623Z,99882.00
2023-02-01T21:52:17.649Z,99868.00
2023-02-01T21:54:47.950Z,99871.00
2023-02-01T21:57:16.048Z,99877.00
2023-02-01T21:59:44.556Z,99893.00
2023-02-01T22:02:19.052Z,99883.00
2023-02-01T22:04:49.757Z,99882.00
2023-02-01T22:07:18.045Z,99883.00
2023-02-01T22:09:46.312Z,99879.00
2023-02-01T22:12:16.844Z,99874.00
2023-02-01T22:14:46.553Z,99871.00
2023-02-01T22:17:14.524Z,99879.00
2023-02-01T22:19:44.146Z,99873.00
2023-02-01T22:22:12.128Z,99878.00
2023-02-01T22:24:40.074Z,99874.00
2023-02-01T22:27:14.349Z,99882.00
2023-02-01T22:29:46.842Z,99896.00
2023-02-01T22:32:20.101Z,99893.00
2023-02-01T22:34:50.962Z,99891.00
2023-02-01T22:37:23.319Z,99889.00
2023-02-01T22:40:12.747Z,99890.00
2023-02-01T22:42:40.904Z,99891.00
2023-02-01T22:45:13.607Z,99890.00
2023-02-01T22:47:49.737Z,99890.00
2023-02-01T22:50:18.082Z,99903.00
2023-02-01T22:52:54.731Z,99914.00
2023-02-01T22:55:23.088Z,99901.00
2023-02-01T22:57:51.072Z,99896.00
2023-02-01T23:00:27.938Z,99898.00
2023-02-01T23:02:56.006Z,99897.00
2023-02-01T23:05:24.061Z,99909.00
2023-02-01T23:07:52.223Z,99904.00
2023-02-01T23:10:21.966Z,99910.00
2023-02-01T23:12:53.252Z,99926.00
2023-02-01T23:15:26.596Z,99913.00
2023-02-01T23:17:54.600Z,99909.00
2023-02-01T23:20:23.169Z,99923.00
2023-02-01T23:22:52.498Z,99904.00
2023-02-01T23:25:20.269Z,99905.00
2023-02-01T23:27:48.888Z,99907.00
2023-02-01T23:30:16.957Z,99906.00
2023-02-01T23:32:44.843Z,99900.00
2023-02-01T23:35:12.616Z,99918.00
2023-02-01T23:37:41.031Z,99902.00
2023-02-01T23:40:09.571Z,99918.00
2023-02-01T23:42:37.477Z,99929.00
2023-02-01T23:45:06.009Z,99921.00
2023-02-01T23:47:33.702Z,99930.00
2023-02-01T23:50:01.446Z,99930.00
2023-02-01T23:52:29.741Z,99929.00
2023-02-01T23:54:57.610Z,99909.00
2023-02-01T23:57:25.438Z,99925.00
2023-02-01T23:59:53.124Z,99922.00
